createdAt,value
2022-10-25T00:00:29.677Z,-77
2022-10-25T00:05:35.721Z,-72
2022-10-25T00:10:41.799Z,-76
2022-10-25T00:15:47.844Z,-75
2022-10-25T00:20:53.983Z,-77
2022-10-25T00:25:59.979Z,-81
2022-10-25T00:31:06.029Z,-77
2022-10-25T00:36:12.056Z,-81
2022-10-25T00:41:18.136Z,-79
2022-10-25T00:46:24.161Z,-78
2022-10-25T00:51:30.221Z,-78
2022-10-25T00:56:36.306Z,-76
2022-10-25T01:01:42.454Z,-77
2022-10-25T01:06:48.385Z,-80
2022-10-25T01:11:54.444Z,-81
2022-10-25T01:17:00.476Z,-79
2022-10-25T01:22:06.531Z,-83
2022-10-25T01:27:12.605Z,-78
2022-10-25T01:32:18.639Z,-79
2022-10-25T01:37:24.708Z,-77
2022-10-25T01:42:30.776Z,-77
2022-10-25T01:47:36.789Z,-79
2022-10-25T01:52:42.842Z,-77
2022-10-25T01:57:49.202Z,-79
2022-10-25T02:02:54.954Z,-81
2022-10-25T02:08:01.057Z,-78
2022-10-25T02:13:07.085Z,-78
2022-10-25T02:18:13.133Z,-77
2022-10-25T02:23:19.156Z,-77
2022-10-25T02:28:25.238Z,-78
2022-10-25T02:38:39.191Z,-78
2022-10-25T02:43:45.283Z,-79
2022-10-25T02:48:51.285Z,-78
2022-10-25T02:53:57.358Z,-77
2022-10-25T02:59:03.431Z,-79
2022-10-25T03:04:09.451Z,-75
2022-10-25T03:09:15.507Z,-79
2022-10-25T03:14:21.592Z,-75
2022-10-25T03:19:27.601Z,-79
2022-10-25T03:24:33.674Z,-77
2022-10-25T03:29:39.735Z,-77
2022-10-25T03:34:45.798Z,-77
2022-10-25T03:39:51.851Z,-77
2022-10-25T03:44:57.891Z,-75
2022-10-25T03:50:03.943Z,-73
2022-10-25T03:55:09.989Z,-73
2022-10-25T04:05:24.009Z,-75
2022-10-25T04:10:30.025Z,-73
2022-10-25T04:20:43.998Z,-75
2022-10-25T04:25:50.037Z,-75
2022-10-25T04:30:56.101Z,-78
2022-10-25T04:36:02.175Z,-77
2022-10-25T04:41:08.263Z,-77
2022-10-25T04:46:14.255Z,-77
2022-10-25T04:51:20.326Z,-78
2022-10-25T04:56:26.344Z,-75
2022-10-25T05:01:33.697Z,-73
2022-10-25T05:06:39.597Z,-73
2022-10-25T05:11:45.628Z,-77
2022-10-25T05:16:51.680Z,-77
2022-10-25T05:21:57.770Z,-81
2022-10-25T05:27:03.793Z,-85
2022-10-25T05:32:09.843Z,-77
2022-10-25T05:37:15.918Z,-83
2022-10-25T05:42:21.943Z,-89
2022-10-25T05:47:28.014Z,-79
2022-10-25T05:52:34.109Z,-87
2022-10-25T05:57:40.125Z,-77
2022-10-25T06:02:46.443Z,-75
2022-10-25T06:07:52.250Z,-75
2022-10-25T06:12:58.255Z,-65
2022-10-25T06:18:04.317Z,-75
2022-10-25T06:23:11.162Z,-75
2022-10-25T06:28:16.402Z,-75
2022-10-25T06:33:25.735Z,-75
2022-10-25T06:38:28.546Z,-72
2022-10-25T06:43:34.595Z,-72
2022-10-25T06:48:40.628Z,-77
2022-10-25T06:53:46.710Z,-70
2022-10-25T06:58:52.744Z,-72
2022-10-25T07:03:58.800Z,-79
2022-10-25T07:09:04.908Z,-69
2022-10-25T07:14:10.895Z,-69
2022-10-25T07:19:16.945Z,-66
2022-10-25T07:24:23.050Z,-66
2022-10-25T07:29:29.072Z,-65
2022-10-25T07:34:35.124Z,-63
2022-10-25T07:39:41.190Z,-63
2022-10-25T07:49:53.277Z,-65
2022-10-25T07:54:59.345Z,-64
2022-10-25T08:00:05.386Z,-63
2022-10-25T08:05:11.421Z,-65
2022-10-25T08:10:17.504Z,-64
2022-10-25T08:15:23.525Z,-61
2022-10-25T08:20:56.343Z,-61
2022-10-25T08:25:35.668Z,-63
2022-10-25T08:30:41.691Z,-66
2022-10-25T08:35:47.748Z,-63
2022-10-25T08:40:53.844Z,-66
2022-10-25T08:45:59.856Z,-67
2022-10-25T08:51:05.911Z,-66
2022-10-25T08:56:16.745Z,-64
2022-10-25T09:01:18.135Z,-65
2022-10-25T09:06:24.062Z,-66
2022-10-25T09:11:30.133Z,-66
2022-10-25T09:16:36.176Z,-65
2022-10-25T09:21:42.227Z,-65
2022-10-25T09:26:48.324Z,-65
2022-10-25T09:31:54.318Z,-69
2022-10-25T09:37:00.370Z,-63
2022-10-25T09:42:06.445Z,-62
2022-10-25T09:47:12.488Z,-65
2022-10-25T09:52:18.524Z,-65
2022-10-25T09:57:24.601Z,-65
2022-10-25T10:02:30.742Z,-64
2022-10-25T10:07:36.692Z,-65
2022-10-25T10:12:42.788Z,-66
2022-10-25T10:17:49.107Z,-64
2022-10-25T10:22:54.859Z,-65
2022-10-25T10:28:00.927Z,-64
2022-10-25T10:33:06.970Z,-64
2022-10-25T10:38:13.003Z,-64
2022-10-25T10:43:19.081Z,-63
2022-10-25T10:48:25.117Z,-63
2022-10-25T10:53:31.182Z,-67
2022-10-25T10:58:37.250Z,-64
2022-10-25T11:03:58.811Z,-61
2022-10-25T11:08:49.315Z,-65
2022-10-25T11:13:55.534Z,-67
2022-10-25T11:19:01.425Z,-65
2022-10-25T11:24:07.476Z,-66
2022-10-25T11:29:13.658Z,-60
2022-10-25T11:34:19.588Z,-66
2022-10-25T11:39:25.649Z,-63
2022-10-25T11:44:31.821Z,-63
2022-10-25T11:49:37.746Z,-65
2022-10-25T11:54:43.797Z,-65
2022-10-25T11:59:49.984Z,-67
2022-10-25T12:04:55.895Z,-73
2022-10-25T12:10:01.949Z,-69
2022-10-25T12:15:08.139Z,-69
2022-10-25T12:20:14.046Z,-70
2022-10-25T12:25:20.104Z,-67
2022-10-25T12:35:32.227Z,-63
2022-10-25T12:40:40.496Z,-65
2022-10-25T12:45:44.462Z,-72
2022-10-25T12:50:50.378Z,-64
2022-10-25T12:55:56.437Z,-65
2022-10-25T13:01:02.652Z,-65
2022-10-25T13:06:08.541Z,-64
2022-10-25T13:11:14.603Z,-65
2022-10-25T13:16:20.770Z,-63
2022-10-25T13:21:26.707Z,-65
2022-10-25T13:26:32.754Z,-62
2022-10-25T13:31:38.901Z,-66
2022-10-25T13:36:44.860Z,-64
2022-10-25T13:41:50.904Z,-63
2022-10-25T13:46:57.092Z,-63
2022-10-25T13:52:03.007Z,-65
2022-10-25T13:57:09.069Z,-65
2022-10-25T14:02:15.299Z,-64
2022-10-25T14:07:21.177Z,-64
2022-10-25T14:12:27.326Z,-61
2022-10-25T14:17:33.323Z,-65
2022-10-25T14:22:39.319Z,-71
2022-10-25T14:27:45.396Z,-63
2022-10-25T14:32:51.449Z,-64
2022-10-25T14:37:57.506Z,-63
2022-10-25T14:43:03.535Z,-65
2022-10-25T14:48:09.624Z,-63
2022-10-25T14:58:23.568Z,-65
2022-10-25T15:03:29.642Z,-61
2022-10-25T15:08:35.677Z,-61
2022-10-25T15:13:41.727Z,-71
2022-10-25T15:18:47.804Z,-65
2022-10-25T15:23:53.872Z,-65
2022-10-25T15:28:59.898Z,-65
2022-10-25T15:34:05.974Z,-64
2022-10-25T15:39:16.749Z,-64
2022-10-25T15:44:18.037Z,-64
2022-10-25T15:49:24.197Z,-61
2022-10-25T15:54:30.138Z,-64
2022-10-25T15:59:36.205Z,-63
2022-10-25T16:04:42.311Z,-64
2022-10-25T16:09:48.314Z,-65
2022-10-25T16:14:54.362Z,-62
2022-10-25T16:20:00.479Z,-63
2022-10-25T16:25:06.473Z,-63
2022-10-25T16:30:12.525Z,-58
2022-10-25T16:35:18.606Z,-65
2022-10-25T16:40:24.634Z,-61
2022-10-25T16:45:30.677Z,-65
2022-10-25T16:50:36.775Z,-65
2022-10-25T16:55:42.799Z,-63
2022-10-25T17:00:48.963Z,-65
2022-10-25T17:05:54.912Z,-62
2022-10-25T17:11:00.931Z,-64
2022-10-25T17:16:06.989Z,-64
2022-10-25T17:21:13.079Z,-65
2022-10-25T17:26:19.106Z,-65
2022-10-25T17:31:25.171Z,-64
2022-10-25T17:36:31.231Z,-64
2022-10-25T17:41:37.276Z,-65
2022-10-25T17:51:49.394Z,-65
2022-10-25T17:56:55.435Z,-65
2022-10-25T18:02:01.598Z,-64
2022-10-25T18:07:07.548Z,-63
2022-10-25T18:12:13.598Z,-65
2022-10-25T18:17:19.655Z,-64
2022-10-25T18:22:25.721Z,-66
2022-10-25T18:27:31.762Z,-61
2022-10-25T18:32:37.813Z,-63
2022-10-25T18:37:43.893Z,-71
2022-10-25T18:42:49.904Z,-64
2022-10-25T18:47:55.967Z,-64
2022-10-25T18:53:02.043Z,-64
2022-10-25T18:58:08.078Z,-63
2022-10-25T19:03:14.126Z,-63
2022-10-25T19:08:20.195Z,-60
2022-10-25T19:13:26.212Z,-60
2022-10-25T19:18:32.283Z,-66
2022-10-25T19:23:38.354Z,-66
2022-10-25T19:28:44.384Z,-64
2022-10-25T19:33:50.436Z,-64
2022-10-25T19:38:56.496Z,-63
2022-10-25T19:44:02.545Z,-64
2022-10-25T19:49:08.723Z,-65
2022-10-25T19:54:14.701Z,-63
2022-10-25T19:59:20.688Z,-63
2022-10-25T20:04:26.756Z,-66
2022-10-25T20:09:32.845Z,-64
2022-10-25T20:14:38.857Z,-64
2022-10-25T20:19:44.907Z,-65
2022-10-25T20:24:50.988Z,-65
2022-10-25T20:29:57.026Z,-63
2022-10-25T20:40:09.165Z,-65
2022-10-25T20:45:15.172Z,-65
2022-10-25T20:50:21.207Z,-66
2022-10-25T20:55:27.312Z,-70
2022-10-25T21:00:33.338Z,-64
2022-10-25T21:05:39.378Z,-66
2022-10-25T21:10:45.468Z,-64
2022-10-25T21:15:51.476Z,-63
2022-10-25T21:20:57.567Z,-71
2022-10-25T21:26:03.631Z,-64
2022-10-25T21:31:09.657Z,-64
2022-10-25T21:36:15.713Z,-65
2022-10-25T21:41:21.794Z,-64
2022-10-25T21:46:27.819Z,-66
2022-10-25T21:51:33.863Z,-64
2022-10-25T21:56:39.931Z,-63
2022-10-25T22:01:47.983Z,-66
2022-10-25T22:06:53.887Z,-64
2022-10-25T22:11:59.972Z,-61
2022-10-25T22:17:05.986Z,-65
2022-10-25T22:22:12.043Z,-62
2022-10-25T22:27:18.129Z,-63
2022-10-25T22:32:24.149Z,-63
2022-10-25T22:37:30.216Z,-62
2022-10-25T22:42:36.281Z,-65
2022-10-25T22:47:42.326Z,-64
2022-10-25T22:52:48.372Z,-65
2022-10-25T22:57:54.442Z,-69
2022-10-25T23:03:00.571Z,-65
2022-10-25T23:08:06.538Z,-66
2022-10-25T23:13:12.610Z,-64
2022-10-25T23:18:18.636Z,-63
2022-10-25T23:23:24.702Z,-63
2022-10-25T23:28:30.767Z,-65
2022-10-25T23:33:36.803Z,-65
2022-10-25T23:38:42.839Z,-65
2022-10-25T23:43:48.931Z,-65
2022-10-25T23:48:54.967Z,-65
2022-10-25T23:54:01.015Z,-61
2022-10-25T23:59:07.086Z,-62
